createdAt,value
2022-07-29T00:02:15.696Z,22.03
2022-07-29T00:04:45.007Z,21.97
2022-07-29T00:07:12.943Z,21.98
2022-07-29T00:09:50.419Z,21.88
2022-07-29T00:12:21.339Z,21.90
2022-07-29T00:14:54.181Z,21.90
2022-07-29T00:17:21.995Z,21.78
2022-07-29T00:19:51.136Z,21.63
2022-07-29T00:22:19.076Z,21.86
2022-07-29T00:24:46.823Z,21.88
2022-07-29T00:27:14.656Z,21.73
2022-07-29T00:29:42.412Z,21.76
2022-07-29T00:32:10.211Z,21.83
2022-07-29T00:34:55.628Z,21.92
2022-07-29T00:37:24.913Z,21.90
2022-07-29T00:39:52.650Z,21.91
2022-07-29T00:42:20.880Z,21.84
2022-07-29T00:44:48.714Z,21.81
2022-07-29T00:47:16.541Z,21.81
2022-07-29T00:49:44.609Z,21.81
2022-07-29T00:52:13.729Z,21.83
2022-07-29T00:54:46.718Z,21.84
2022-07-29T00:57:14.654Z,21.88
2022-07-29T00:59:42.608Z,21.52
2022-07-29T01:02:10.467Z,21.55
2022-07-29T01:04:38.281Z,21.51
2022-07-29T01:07:06.832Z,21.64
2022-07-29T01:09:45.500Z,21.71
2022-07-29T01:12:18.919Z,21.71
2022-07-29T01:14:47.694Z,21.81
2022-07-29T01:17:22.174Z,21.85
2022-07-29T01:20:00.032Z,21.90
2022-07-29T01:22:37.340Z,21.98
2022-07-29T01:25:23.503Z,21.77
2022-07-29T01:28:10.170Z,21.77
2022-07-29T01:30:44.041Z,21.70
2022-07-29T01:33:37.930Z,21.67
2022-07-29T01:36:20.585Z,21.58
2022-07-29T01:38:54.964Z,21.50
2022-07-29T01:41:24.426Z,21.51
2022-07-29T01:43:56.018Z,21.68
2022-07-29T01:46:32.790Z,21.69
2022-07-29T01:49:06.661Z,21.58
2022-07-29T01:51:40.223Z,21.59
2022-07-29T01:54:14.653Z,21.62
2022-07-29T01:56:44.433Z,21.75
2022-07-29T01:59:13.567Z,21.80
2022-07-29T02:01:46.601Z,21.93
2022-07-29T02:04:29.353Z,22.01
2022-07-29T02:07:02.807Z,21.91
2022-07-29T02:09:32.224Z,21.94
2022-07-29T02:12:03.189Z,22.03
2022-07-29T02:14:40.363Z,21.96
2022-07-29T02:17:10.551Z,22.01
2022-07-29T02:19:40.513Z,21.84
2022-07-29T02:22:08.838Z,21.66
2022-07-29T02:24:39.354Z,21.81
2022-07-29T02:27:09.363Z,21.79
2022-07-29T02:29:39.204Z,21.97
2022-07-29T02:32:12.261Z,22.00
2022-07-29T02:34:40.570Z,21.89
2022-07-29T02:37:11.426Z,21.75
2022-07-29T02:39:41.250Z,21.81
2022-07-29T02:42:12.383Z,21.88
2022-07-29T02:44:40.334Z,22.02
2022-07-29T02:47:18.612Z,22.08
2022-07-29T02:49:54.330Z,22.07
2022-07-29T02:52:26.813Z,22.03
2022-07-29T02:54:58.951Z,22.01
2022-07-29T02:57:34.956Z,21.99
2022-07-29T03:00:08.432Z,22.00
2022-07-29T03:02:40.163Z,22.00
2022-07-29T03:05:11.448Z,21.94
2022-07-29T03:07:42.479Z,21.85
2022-07-29T03:10:13.460Z,21.77
2022-07-29T03:12:42.311Z,21.94
2022-07-29T03:15:11.534Z,21.98
2022-07-29T03:17:41.778Z,22.01
2022-07-29T03:20:11.232Z,22.03
2022-07-29T03:22:44.357Z,22.02
2022-07-29T03:25:12.522Z,21.99
2022-07-29T03:27:40.312Z,21.99
2022-07-29T03:30:09.528Z,21.83
2022-07-29T03:32:37.589Z,21.75
2022-07-29T03:35:08.303Z,21.72
2022-07-29T03:37:37.464Z,21.64
2022-07-29T03:40:09.282Z,21.75
2022-07-29T03:42:41.813Z,21.76
2022-07-29T03:45:12.873Z,21.66
2022-07-29T03:47:50.840Z,21.86
2022-07-29T03:50:23.366Z,21.81
2022-07-29T03:52:51.615Z,21.92
2022-07-29T03:55:19.502Z,21.93
2022-07-29T03:57:48.637Z,21.95
2022-07-29T04:00:17.527Z,21.99
2022-07-29T04:02:49.226Z,21.97
2022-07-29T04:05:18.536Z,22.07
2022-07-29T04:07:48.586Z,21.85
2022-07-29T04:10:17.875Z,21.84
2022-07-29T04:12:58.502Z,21.85
2022-07-29T04:15:26.788Z,21.79
2022-07-29T04:17:59.611Z,21.77
2022-07-29T04:20:27.381Z,21.69
2022-07-29T04:22:56.510Z,21.68
2022-07-29T04:25:24.507Z,21.73
2022-07-29T04:28:04.391Z,21.78
2022-07-29T04:30:34.418Z,21.69
2022-07-29T04:33:02.989Z,21.63
2022-07-29T04:35:31.112Z,21.45
2022-07-29T04:38:15.945Z,21.48
2022-07-29T04:40:45.271Z,21.48
2022-07-29T04:43:14.296Z,21.60
2022-07-29T04:45:43.358Z,21.66
2022-07-29T04:48:11.308Z,21.63
2022-07-29T04:50:40.559Z,21.61
2022-07-29T04:53:09.784Z,21.44
2022-07-29T04:55:38.994Z,21.53
2022-07-29T04:58:07.123Z,21.63
2022-07-29T05:00:35.097Z,21.71
2022-07-29T05:03:02.914Z,21.91
2022-07-29T05:05:30.822Z,21.89
2022-07-29T05:07:58.588Z,21.90
2022-07-29T05:10:27.701Z,21.70
2022-07-29T05:12:55.461Z,21.72
2022-07-29T05:15:23.233Z,21.81
2022-07-29T05:17:50.973Z,21.84
2022-07-29T05:20:19.373Z,21.84
2022-07-29T05:22:47.086Z,21.78
2022-07-29T05:25:14.795Z,21.73
2022-07-29T05:27:43.886Z,21.58
2022-07-29T05:30:12.331Z,21.57
2022-07-29T05:32:40.120Z,21.73
2022-07-29T05:35:08.946Z,21.74
2022-07-29T05:37:36.893Z,21.71
2022-07-29T05:40:05.173Z,21.52
2022-07-29T05:42:33.006Z,21.60
2022-07-29T05:45:02.121Z,21.65
2022-07-29T05:47:29.891Z,21.58
2022-07-29T05:49:57.928Z,21.97
2022-07-29T05:52:25.744Z,21.91
2022-07-29T05:54:53.523Z,21.88
2022-07-29T05:57:23.287Z,21.90
2022-07-29T05:59:51.855Z,21.89
2022-07-29T06:02:20.977Z,22.08
2022-07-29T06:04:49.695Z,22.13
2022-07-29T06:07:17.597Z,22.15
2022-07-29T06:09:45.661Z,22.17
2022-07-29T06:12:13.427Z,22.18
2022-07-29T06:14:41.193Z,22.15
2022-07-29T06:17:09.010Z,22.28
2022-07-29T06:19:38.257Z,22.27
2022-07-29T06:22:06.633Z,22.23
2022-07-29T06:24:34.408Z,22.34
2022-07-29T06:27:02.145Z,22.54
2022-07-29T06:29:29.911Z,22.74
2022-07-29T06:31:57.657Z,22.74
2022-07-29T06:34:25.436Z,22.86
2022-07-29T06:36:54.927Z,22.63
2022-07-29T06:39:22.857Z,22.68
2022-07-29T06:41:51.408Z,22.89
2022-07-29T06:44:20.191Z,22.91
2022-07-29T06:46:50.088Z,23.09
2022-07-29T06:49:18.127Z,23.13
2022-07-29T06:51:45.983Z,22.94
2022-07-29T06:54:15.432Z,23.11
2022-07-29T06:56:44.008Z,23.18
2022-07-29T06:59:13.499Z,23.38
2022-07-29T07:01:42.766Z,23.57
2022-07-29T07:04:11.261Z,23.92
2022-07-29T07:06:39.681Z,23.83
2022-07-29T07:09:07.614Z,23.97
2022-07-29T07:11:36.978Z,23.69
2022-07-29T07:14:04.897Z,23.83
2022-07-29T07:16:33.594Z,23.97
2022-07-29T07:19:01.591Z,24.19
2022-07-29T07:21:30.594Z,24.31
2022-07-29T07:23:59.041Z,24.31
2022-07-29T07:26:28.033Z,24.55
2022-07-29T07:28:57.275Z,24.72
2022-07-29T07:31:25.256Z,24.73
2022-07-29T07:33:54.318Z,24.88
2022-07-29T07:36:22.192Z,24.88
2022-07-29T07:38:50.354Z,25.01
2022-07-29T07:41:18.150Z,25.20
2022-07-29T07:43:45.909Z,25.36
2022-07-29T07:46:15.551Z,25.39
2022-07-29T07:48:43.364Z,25.23
2022-07-29T07:51:11.129Z,25.00
2022-07-29T07:53:38.923Z,25.05
2022-07-29T07:56:10.937Z,25.15
2022-07-29T07:58:39.547Z,25.20
2022-07-29T08:01:07.434Z,25.21
2022-07-29T08:03:37.056Z,25.26
2022-07-29T08:06:04.871Z,25.25
2022-07-29T08:08:32.705Z,25.29
2022-07-29T08:11:08.317Z,25.50
2022-07-29T08:13:36.723Z,25.58
2022-07-29T08:16:12.539Z,25.34
2022-07-29T08:18:43.093Z,25.32
2022-07-29T08:21:10.858Z,25.43
2022-07-29T08:23:50.518Z,25.78
2022-07-29T08:26:21.106Z,25.92
2022-07-29T08:28:51.203Z,26.14
2022-07-29T08:31:19.684Z,26.34
2022-07-29T08:33:48.839Z,26.35
2022-07-29T08:36:16.580Z,26.45
2022-07-29T08:38:44.311Z,26.53
2022-07-29T08:41:12.087Z,26.25
2022-07-29T08:43:42.752Z,26.30
2022-07-29T08:46:10.739Z,26.52
2022-07-29T08:48:38.714Z,26.39
2022-07-29T08:51:09.794Z,26.53
2022-07-29T08:53:38.993Z,26.86
2022-07-29T08:56:07.480Z,26.49
2022-07-29T08:58:36.928Z,26.37
2022-07-29T09:01:07.655Z,26.31
2022-07-29T09:03:42.550Z,26.66
2022-07-29T09:06:15.391Z,26.98
2022-07-29T09:08:43.442Z,27.06
2022-07-29T09:11:12.509Z,27.07
2022-07-29T09:13:40.302Z,27.01
2022-07-29T09:16:09.505Z,26.87
2022-07-29T09:18:39.852Z,26.66
2022-07-29T09:21:26.117Z,26.99
2022-07-29T09:24:08.396Z,27.21
2022-07-29T09:26:38.344Z,27.60
2022-07-29T09:29:13.591Z,27.76
2022-07-29T09:31:43.899Z,27.73
2022-07-29T09:34:12.618Z,27.65
2022-07-29T09:36:41.734Z,27.88
2022-07-29T09:39:11.120Z,27.85
2022-07-29T09:41:51.047Z,27.79
2022-07-29T09:44:19.303Z,27.74
2022-07-29T09:46:59.293Z,28.02
2022-07-29T09:49:27.884Z,28.26
2022-07-29T09:52:05.299Z,27.95
2022-07-29T09:54:37.708Z,28.10
2022-07-29T09:57:07.502Z,28.20
2022-07-29T09:59:35.691Z,28.19
2022-07-29T10:02:03.598Z,28.31
2022-07-29T10:04:41.588Z,27.74
2022-07-29T10:07:09.727Z,28.05
2022-07-29T10:09:38.823Z,28.25
2022-07-29T10:12:14.649Z,28.63
2022-07-29T10:14:43.955Z,28.90
2022-07-29T10:17:12.519Z,28.89
2022-07-29T10:19:40.730Z,29.28
2022-07-29T10:22:09.990Z,29.13
2022-07-29T10:24:40.749Z,28.68
2022-07-29T10:27:10.205Z,28.23
2022-07-29T10:29:38.002Z,28.10
2022-07-29T10:32:41.202Z,28.52
2022-07-29T10:35:17.154Z,28.04
2022-07-29T10:38:13.566Z,28.73
2022-07-29T10:41:10.849Z,29.77
2022-07-29T10:43:43.274Z,30.37
2022-07-29T10:46:13.802Z,30.39
2022-07-29T10:49:11.450Z,30.68
2022-07-29T10:52:00.792Z,30.72
2022-07-29T10:54:44.604Z,29.72
2022-07-29T10:57:53.120Z,29.24
2022-07-29T11:00:34.330Z,29.70
2022-07-29T11:03:04.749Z,29.37
2022-07-29T11:05:55.086Z,29.52
2022-07-29T11:08:27.773Z,30.08
2022-07-29T11:11:33.362Z,30.21
2022-07-29T11:14:04.457Z,30.34
2022-07-29T11:17:06.906Z,30.32
2022-07-29T11:19:37.227Z,30.54
2022-07-29T11:22:10.919Z,30.51
2022-07-29T11:24:39.249Z,30.63
2022-07-29T11:27:20.928Z,30.64
2022-07-29T11:29:55.649Z,30.75
2022-07-29T11:32:25.709Z,30.65
2022-07-29T11:35:17.050Z,30.58
2022-07-29T11:37:52.343Z,30.83
2022-07-29T11:40:23.231Z,30.89
2022-07-29T11:42:52.586Z,30.50
2022-07-29T11:45:47.885Z,30.53
2022-07-29T11:48:29.821Z,30.53
2022-07-29T11:51:01.515Z,30.98
2022-07-29T11:53:32.468Z,31.83
2022-07-29T11:56:02.740Z,31.32
2022-07-29T11:58:31.885Z,32.34
2022-07-29T12:01:04.668Z,32.57
2022-07-29T12:03:36.088Z,30.36
2022-07-29T12:06:07.516Z,30.50
2022-07-29T12:08:43.424Z,30.95
2022-07-29T12:11:21.202Z,30.76
2022-07-29T12:13:50.705Z,30.85
2022-07-29T12:16:26.020Z,31.03
2022-07-29T12:18:59.721Z,31.53
2022-07-29T12:21:28.843Z,31.73
2022-07-29T12:24:05.857Z,32.20
2022-07-29T12:26:40.378Z,32.44
2022-07-29T12:29:15.556Z,33.04
2022-07-29T12:31:54.954Z,32.98
2022-07-29T12:34:28.867Z,32.82
2022-07-29T12:36:57.528Z,32.61
2022-07-29T12:39:27.378Z,32.91
2022-07-29T12:42:04.103Z,33.04
2022-07-29T12:44:45.947Z,32.48
2022-07-29T12:47:15.151Z,32.10
2022-07-29T12:49:43.149Z,31.89
2022-07-29T12:52:28.605Z,31.80
2022-07-29T12:54:56.374Z,32.47
2022-07-29T12:57:24.875Z,32.93
2022-07-29T13:00:11.535Z,32.26
2022-07-29T13:02:42.281Z,32.38
2022-07-29T13:05:10.976Z,31.99
2022-07-29T13:07:55.852Z,31.99
2022-07-29T13:10:26.122Z,33.03
2022-07-29T13:13:08.987Z,33.82
2022-07-29T13:15:37.654Z,33.90
2022-07-29T13:18:27.519Z,33.57
2022-07-29T13:20:55.545Z,33.31
2022-07-29T13:23:23.601Z,33.60
2022-07-29T13:25:51.326Z,33.87
2022-07-29T13:28:19.089Z,33.59
2022-07-29T13:30:47.596Z,32.97
2022-07-29T13:33:16.751Z,33.00
2022-07-29T13:35:44.514Z,34.21
2022-07-29T13:38:12.524Z,33.89
2022-07-29T13:40:40.260Z,33.90
2022-07-29T13:43:11.422Z,34.50
2022-07-29T13:45:39.513Z,34.37
2022-07-29T13:48:08.087Z,34.12
2022-07-29T13:50:37.197Z,34.17
2022-07-29T13:53:05.309Z,33.14
2022-07-29T13:55:33.047Z,33.10
2022-07-29T13:58:01.563Z,32.54
2022-07-29T14:00:32.171Z,33.82
2022-07-29T14:02:59.901Z,34.64
2022-07-29T14:05:27.859Z,34.70
2022-07-29T14:07:57.003Z,33.99
2022-07-29T14:10:24.756Z,35.11
2022-07-29T14:12:52.523Z,35.52
2022-07-29T14:15:21.136Z,35.35
2022-07-29T14:17:48.881Z,35.09
2022-07-29T14:20:17.538Z,34.94
2022-07-29T14:22:45.743Z,35.13
2022-07-29T14:25:15.708Z,34.59
2022-07-29T14:27:44.132Z,35.24
2022-07-29T14:30:12.762Z,35.73
2022-07-29T14:32:40.477Z,36.05
2022-07-29T14:35:09.012Z,35.35
2022-07-29T14:37:40.345Z,34.85
2022-07-29T14:40:09.983Z,35.02
2022-07-29T14:42:39.849Z,35.68
2022-07-29T14:45:09.110Z,35.35
2022-07-29T14:47:37.171Z,35.21
2022-07-29T14:50:06.121Z,35.54
2022-07-29T14:52:33.980Z,35.73
2022-07-29T14:55:01.783Z,34.92
2022-07-29T14:57:29.518Z,34.63
2022-07-29T14:59:58.705Z,34.42
2022-07-29T15:02:45.829Z,33.65
2022-07-29T15:05:14.197Z,33.21
2022-07-29T15:07:41.968Z,32.69
2022-07-29T15:10:09.862Z,32.92
2022-07-29T15:12:37.689Z,33.00
2022-07-29T15:15:08.382Z,32.58
2022-07-29T15:17:36.141Z,32.42
2022-07-29T15:20:04.773Z,32.75
2022-07-29T15:22:32.805Z,33.16
2022-07-29T15:25:00.699Z,33.49
2022-07-29T15:27:28.450Z,33.36
2022-07-29T15:29:56.181Z,33.11
2022-07-29T15:32:25.405Z,32.64
2022-07-29T15:34:53.172Z,32.73
2022-07-29T15:37:20.971Z,32.94
2022-07-29T15:39:48.717Z,32.82
2022-07-29T15:42:17.779Z,32.39
2022-07-29T15:44:45.672Z,32.68
2022-07-29T15:47:13.438Z,32.11
2022-07-29T15:49:48.786Z,32.32
2022-07-29T15:52:18.662Z,32.40
2022-07-29T15:54:46.669Z,32.24
2022-07-29T15:57:14.994Z,31.84
2022-07-29T15:59:42.763Z,31.96
2022-07-29T16:02:11.156Z,32.36
2022-07-29T16:04:38.998Z,32.49
2022-07-29T16:07:08.162Z,32.58
2022-07-29T16:09:35.921Z,32.72
2022-07-29T16:12:14.922Z,32.32
2022-07-29T16:14:43.596Z,32.35
2022-07-29T16:17:14.337Z,32.15
2022-07-29T16:19:42.966Z,32.71
2022-07-29T16:22:12.295Z,32.84
2022-07-29T16:24:40.578Z,32.78
2022-07-29T16:27:08.512Z,33.27
2022-07-29T16:29:37.036Z,32.90
2022-07-29T16:32:05.752Z,32.45
2022-07-29T16:34:33.615Z,32.28
2022-07-29T16:37:02.065Z,32.02
2022-07-29T16:39:31.268Z,31.71
2022-07-29T16:42:01.441Z,31.86
2022-07-29T16:44:30.945Z,32.01
2022-07-29T16:47:00.010Z,32.25
2022-07-29T16:49:28.536Z,32.71
2022-07-29T16:51:56.355Z,32.77
2022-07-29T16:54:24.175Z,32.68
2022-07-29T16:56:54.151Z,32.51
2022-07-29T16:59:22.186Z,32.23
2022-07-29T17:01:50.124Z,31.79
2022-07-29T17:04:17.884Z,31.53
2022-07-29T17:06:45.671Z,30.56
2022-07-29T17:09:15.137Z,30.19
2022-07-29T17:11:53.135Z,29.82
2022-07-29T17:14:24.878Z,29.66
2022-07-29T17:17:01.109Z,29.42
2022-07-29T17:19:30.975Z,29.57
2022-07-29T17:22:08.931Z,28.86
2022-07-29T17:24:40.195Z,28.97
2022-07-29T17:27:09.279Z,28.97
2022-07-29T17:29:38.682Z,28.77
2022-07-29T17:32:07.595Z,28.75
2022-07-29T17:34:36.249Z,28.46
2022-07-29T17:37:04.381Z,28.75
2022-07-29T17:39:32.746Z,28.71
2022-07-29T17:42:00.496Z,28.63
2022-07-29T17:44:28.478Z,28.59
2022-07-29T17:46:57.811Z,28.82
2022-07-29T17:49:26.803Z,28.61
2022-07-29T17:51:58.991Z,28.76
2022-07-29T17:54:28.482Z,28.57
2022-07-29T17:56:56.606Z,28.46
2022-07-29T17:59:24.574Z,28.78
2022-07-29T18:01:53.186Z,28.61
2022-07-29T18:04:23.507Z,28.35
2022-07-29T18:06:51.360Z,28.35
2022-07-29T18:09:19.845Z,28.06
2022-07-29T18:11:48.801Z,28.21
2022-07-29T18:14:16.962Z,28.01
2022-07-29T18:16:44.896Z,28.25
2022-07-29T18:19:12.802Z,28.13
2022-07-29T18:21:51.052Z,28.37
2022-07-29T18:24:22.586Z,27.98
2022-07-29T18:26:50.558Z,27.72
2022-07-29T18:29:18.315Z,27.96
2022-07-29T18:31:46.142Z,27.52
2022-07-29T18:34:13.878Z,27.36
2022-07-29T18:36:42.969Z,27.33
2022-07-29T18:39:13.141Z,27.28
2022-07-29T18:41:50.210Z,27.24
2022-07-29T18:44:18.904Z,26.85
2022-07-29T18:46:47.874Z,26.75
2022-07-29T18:49:16.028Z,27.00
2022-07-29T18:51:45.463Z,26.63
2022-07-29T18:54:13.446Z,26.82
2022-07-29T18:56:41.257Z,26.56
2022-07-29T18:59:09.146Z,26.68
2022-07-29T19:01:37.828Z,26.41
2022-07-29T19:04:06.004Z,26.59
2022-07-29T19:06:33.771Z,26.55
2022-07-29T19:09:02.922Z,26.63
2022-07-29T19:11:31.080Z,26.25
2022-07-29T19:13:58.820Z,26.64
2022-07-29T19:16:26.630Z,26.60
2022-07-29T19:18:54.690Z,26.13
2022-07-29T19:21:24.847Z,26.04
2022-07-29T19:24:00.097Z,25.96
2022-07-29T19:26:36.508Z,25.97
2022-07-29T19:29:04.635Z,26.04
2022-07-29T19:31:32.473Z,25.82
2022-07-29T19:34:00.346Z,25.76
2022-07-29T19:36:28.423Z,25.60
2022-07-29T19:38:56.144Z,25.72
2022-07-29T19:41:24.326Z,25.68
2022-07-29T19:43:53.744Z,25.74
2022-07-29T19:46:21.806Z,25.81
2022-07-29T19:48:49.996Z,25.66
2022-07-29T19:51:18.315Z,25.65
2022-07-29T19:53:46.179Z,25.79
2022-07-29T19:56:13.977Z,25.89
2022-07-29T19:58:43.921Z,25.82
2022-07-29T20:01:13.127Z,25.73
2022-07-29T20:03:40.895Z,25.64
2022-07-29T20:06:09.092Z,25.55
2022-07-29T20:08:36.949Z,25.51
2022-07-29T20:11:04.750Z,25.54
2022-07-29T20:13:33.634Z,25.59
2022-07-29T20:16:02.205Z,25.63
2022-07-29T20:18:31.379Z,25.57
2022-07-29T20:21:00.260Z,25.30
2022-07-29T20:23:28.000Z,25.42
2022-07-29T20:26:01.370Z,25.46
2022-07-29T20:28:29.202Z,25.37
2022-07-29T20:30:56.986Z,25.15
2022-07-29T20:33:24.815Z,25.11
2022-07-29T20:35:53.914Z,25.22
2022-07-29T20:38:21.643Z,25.27
2022-07-29T20:40:50.692Z,25.26
2022-07-29T20:43:18.476Z,25.32
2022-07-29T20:45:46.185Z,25.24
2022-07-29T20:48:13.953Z,25.06
2022-07-29T20:50:42.631Z,24.82
2022-07-29T20:53:11.902Z,24.77
2022-07-29T20:55:39.645Z,25.21
2022-07-29T20:58:07.386Z,25.13
2022-07-29T21:00:35.303Z,24.85
2022-07-29T21:03:03.111Z,25.19
2022-07-29T21:05:32.749Z,25.13
2022-07-29T21:08:00.488Z,25.04
2022-07-29T21:10:29.822Z,24.88
2022-07-29T21:12:57.575Z,24.67
2022-07-29T21:15:27.393Z,24.86
2022-07-29T21:18:00.615Z,24.67
2022-07-29T21:20:29.191Z,24.26
2022-07-29T21:22:56.973Z,24.45
2022-07-29T21:25:25.877Z,24.62
2022-07-29T21:28:12.362Z,24.59
2022-07-29T21:30:40.121Z,24.47
2022-07-29T21:33:07.903Z,24.50
2022-07-29T21:36:06.383Z,24.57
2022-07-29T21:38:23.505Z,24.46
2022-07-29T21:40:52.976Z,24.52
2022-07-29T21:43:22.807Z,24.49
2022-07-29T21:45:51.248Z,24.30
2022-07-29T21:48:19.851Z,24.48
2022-07-29T21:50:48.510Z,24.63
2022-07-29T21:53:16.481Z,24.53
2022-07-29T21:55:44.837Z,24.48
2022-07-29T21:58:16.281Z,24.35
2022-07-29T22:00:46.677Z,24.30
2022-07-29T22:03:14.431Z,24.18
2022-07-29T22:05:42.236Z,24.13
2022-07-29T22:08:09.961Z,24.03
2022-07-29T22:10:37.986Z,24.22
2022-07-29T22:13:05.740Z,24.07
2022-07-29T22:15:33.506Z,24.00
2022-07-29T22:18:02.686Z,24.13
2022-07-29T22:20:30.474Z,23.95
2022-07-29T22:22:58.250Z,24.17
2022-07-29T22:25:28.127Z,24.00
2022-07-29T22:27:55.928Z,23.96
2022-07-29T22:30:23.766Z,23.72
2022-07-29T22:32:51.535Z,23.87
2022-07-29T22:35:20.683Z,23.90
2022-07-29T22:37:48.437Z,23.97
2022-07-29T22:40:16.182Z,23.56
2022-07-29T22:42:43.933Z,23.52
2022-07-29T22:45:12.044Z,23.36
2022-07-29T22:47:47.960Z,23.43
2022-07-29T22:50:16.563Z,23.26
2022-07-29T22:52:45.958Z,23.52
2022-07-29T22:55:13.915Z,23.50
2022-07-29T22:57:41.875Z,23.46
2022-07-29T23:00:11.181Z,23.50
2022-07-29T23:02:40.154Z,23.39
2022-07-29T23:05:09.372Z,23.50
2022-07-29T23:07:37.194Z,23.49
2022-07-29T23:10:07.440Z,23.33
2022-07-29T23:12:35.227Z,23.40
2022-07-29T23:15:02.983Z,23.44
2022-07-29T23:17:32.366Z,23.37
2022-07-29T23:20:06.230Z,23.31
2022-07-29T23:22:33.964Z,23.31
2022-07-29T23:25:01.701Z,23.00
2022-07-29T23:27:30.884Z,22.84
2022-07-29T23:29:58.665Z,22.84
2022-07-29T23:32:26.519Z,22.79
2022-07-29T23:34:54.278Z,22.75
2022-07-29T23:37:22.058Z,22.70
2022-07-29T23:39:49.837Z,22.62
2022-07-29T23:42:17.570Z,22.87
2022-07-29T23:44:46.686Z,22.78
2022-07-29T23:47:14.666Z,22.71
2022-07-29T23:49:42.436Z,22.66
2022-07-29T23:52:10.205Z,22.61
2022-07-29T23:54:37.935Z,22.34
2022-07-29T23:57:05.700Z,22.40
2022-07-29T23:59:33.410Z,22.44
